createdAt,value
2019-06-15T00:00:09.419Z,24.6
2019-06-15T00:00:49.980Z,24.69
2019-06-15T00:01:30.529Z,24.6
2019-06-15T00:02:11.100Z,24.68
2019-06-15T00:02:51.661Z,24.65
2019-06-15T00:03:32.239Z,24.58
2019-06-15T00:04:12.792Z,24.61
2019-06-15T00:04:53.425Z,24.61
2019-06-15T00:05:33.993Z,24.63
2019-06-15T00:06:14.582Z,24.58
2019-06-15T00:06:55.140Z,24.6
2019-06-15T00:07:35.723Z,24.6
2019-06-15T00:08:16.329Z,24.55
2019-06-15T00:08:56.880Z,24.66
2019-06-15T00:09:37.481Z,24.61
2019-06-15T00:10:18.045Z,24.65
2019-06-15T00:10:58.640Z,24.66
2019-06-15T00:11:39.195Z,24.61
2019-06-15T00:12:19.793Z,24.58
2019-06-15T00:13:00.342Z,24.53
2019-06-15T00:13:40.931Z,24.55
2019-06-15T00:14:21.518Z,24.53
2019-06-15T00:15:02.118Z,24.5
2019-06-15T00:15:42.688Z,24.54
2019-06-15T00:16:23.273Z,24.53
2019-06-15T00:17:03.828Z,24.5
2019-06-15T00:17:44.428Z,24.63
2019-06-15T00:18:27.661Z,24.54
2019-06-15T00:19:08.216Z,24.54
2019-06-15T00:19:48.839Z,24.65
2019-06-15T00:20:29.662Z,24.58
2019-06-15T00:21:10.230Z,24.55
2019-06-15T00:21:50.789Z,24.57
2019-06-15T00:22:31.363Z,24.55
2019-06-15T00:23:11.927Z,24.57
2019-06-15T00:23:52.490Z,24.55
2019-06-15T00:24:35.504Z,24.57
2019-06-15T00:25:13.649Z,24.51
2019-06-15T00:25:54.253Z,24.58
2019-06-15T00:26:34.812Z,24.55
2019-06-15T00:27:15.395Z,24.5
2019-06-15T00:27:55.954Z,24.54
2019-06-15T00:28:36.532Z,24.54
2019-06-15T00:29:17.099Z,24.47
2019-06-15T00:29:58.524Z,24.57
2019-06-15T00:30:39.116Z,24.51
2019-06-15T00:31:19.667Z,24.48
2019-06-15T00:32:00.241Z,24.48
2019-06-15T00:32:40.809Z,24.57
2019-06-15T00:33:21.401Z,24.5
2019-06-15T00:34:01.934Z,24.48
2019-06-15T00:34:42.497Z,24.51
2019-06-15T00:35:23.056Z,24.43
2019-06-15T00:36:03.629Z,24.51
2019-06-15T00:36:44.182Z,24.45
2019-06-15T00:37:24.751Z,24.42
2019-06-15T00:38:05.318Z,24.51
2019-06-15T00:38:45.883Z,24.45
2019-06-15T00:39:26.448Z,24.53
2019-06-15T00:40:06.994Z,24.43
2019-06-15T00:40:47.624Z,24.54
2019-06-15T00:41:28.158Z,24.43
2019-06-15T00:42:08.705Z,24.42
2019-06-15T00:42:49.252Z,24.42
2019-06-15T00:43:29.865Z,24.5
2019-06-15T00:44:10.426Z,24.5
2019-06-15T00:44:51.004Z,24.51
2019-06-15T00:45:31.580Z,24.54
2019-06-15T00:46:12.152Z,24.54
2019-06-15T00:46:52.730Z,24.45
2019-06-15T00:47:33.304Z,24.51
2019-06-15T00:48:13.883Z,24.58
2019-06-15T00:48:54.491Z,24.55
2019-06-15T00:49:35.049Z,24.51
2019-06-15T00:50:15.620Z,24.47
2019-06-15T00:50:56.203Z,24.53
2019-06-15T00:51:36.767Z,24.51
2019-06-15T00:52:17.326Z,24.51
2019-06-15T00:52:57.901Z,24.45
2019-06-15T00:53:38.467Z,24.48
2019-06-15T00:54:19.044Z,24.47
2019-06-15T00:54:59.614Z,24.48
2019-06-15T00:55:40.178Z,24.43
2019-06-15T00:56:20.746Z,24.53
2019-06-15T00:57:01.332Z,24.43
2019-06-15T00:57:41.912Z,24.4
2019-06-15T00:58:22.486Z,24.45
2019-06-15T00:59:03.053Z,24.5
2019-06-15T00:59:43.626Z,24.45
2019-06-15T01:00:24.201Z,24.39
2019-06-15T01:01:04.769Z,24.4
2019-06-15T01:01:45.334Z,24.42
2019-06-15T01:02:25.934Z,24.48
2019-06-15T01:03:06.489Z,24.4
2019-06-15T01:03:47.069Z,24.39
2019-06-15T01:04:27.639Z,24.47
2019-06-15T01:05:08.203Z,24.48
2019-06-15T01:05:48.790Z,24.45
2019-06-15T01:06:29.345Z,24.4
2019-06-15T01:07:09.934Z,24.42
2019-06-15T01:07:50.501Z,24.36
2019-06-15T01:08:31.067Z,24.42
2019-06-15T01:09:11.630Z,24.42
2019-06-15T01:09:52.204Z,24.4
2019-06-15T01:10:32.787Z,24.35
2019-06-15T01:11:13.420Z,24.33
2019-06-15T01:11:54.012Z,24.26
2019-06-15T01:12:34.559Z,24.24
2019-06-15T01:13:15.153Z,24.29
2019-06-15T01:13:55.726Z,24.32
2019-06-15T01:14:36.285Z,24.35
2019-06-15T01:15:16.848Z,24.39
2019-06-15T01:15:57.438Z,24.4
2019-06-15T01:16:37.998Z,24.28
2019-06-15T01:17:18.559Z,24.36
2019-06-15T01:17:59.119Z,24.29
2019-06-15T01:18:39.734Z,24.33
2019-06-15T01:19:20.290Z,24.32
2019-06-15T01:20:00.859Z,24.35
2019-06-15T01:20:41.687Z,24.3
2019-06-15T01:21:22.246Z,24.26
2019-06-15T01:22:02.841Z,24.26
2019-06-15T01:22:43.368Z,24.29
2019-06-15T01:23:23.946Z,24.33
2019-06-15T01:24:04.502Z,24.23
2019-06-15T01:24:45.101Z,24.28
2019-06-15T01:25:25.672Z,24.21
2019-06-15T01:26:06.240Z,24.24
2019-06-15T01:26:46.810Z,24.3
2019-06-15T01:27:27.374Z,24.26
2019-06-15T01:28:07.930Z,24.23
2019-06-15T01:28:48.496Z,24.26
2019-06-15T01:29:29.064Z,24.21
2019-06-15T01:30:09.635Z,24.24
2019-06-15T01:30:50.218Z,24.29
2019-06-15T01:31:30.762Z,24.21
2019-06-15T01:32:11.321Z,24.28
2019-06-15T01:32:51.892Z,24.28
2019-06-15T01:33:32.467Z,24.18
2019-06-15T01:34:13.036Z,24.24
2019-06-15T01:34:53.600Z,24.17
2019-06-15T01:35:34.168Z,24.21
2019-06-15T01:36:14.740Z,24.3
2019-06-15T01:36:55.335Z,24.28
2019-06-15T01:37:35.902Z,24.2
2019-06-15T01:38:16.468Z,24.24
2019-06-15T01:38:57.040Z,24.2
2019-06-15T01:39:37.622Z,24.29
2019-06-15T01:40:18.187Z,24.21
2019-06-15T01:40:58.765Z,24.24
2019-06-15T01:41:39.326Z,24.2
2019-06-15T01:42:19.888Z,24.17
2019-06-15T01:43:00.479Z,24.16
2019-06-15T01:43:41.022Z,24.17
2019-06-15T01:44:21.631Z,24.18
2019-06-15T01:45:02.243Z,24.24
2019-06-15T01:45:42.786Z,24.13
2019-06-15T01:46:23.352Z,24.16
2019-06-15T01:47:03.920Z,24.16
2019-06-15T01:47:44.514Z,24.2
2019-06-15T01:48:25.093Z,24.2
2019-06-15T01:49:05.665Z,24.2
2019-06-15T01:49:46.248Z,24.13
2019-06-15T01:50:26.817Z,24.24
2019-06-15T01:51:07.388Z,24.33
2019-06-15T01:51:47.945Z,24.18
2019-06-15T01:52:28.500Z,24.2
2019-06-15T01:53:09.052Z,24.17
2019-06-15T01:53:49.613Z,24.11
2019-06-15T01:54:30.188Z,24.16
2019-06-15T01:55:20.301Z,24.2
2019-06-15T01:55:51.310Z,24.16
2019-06-15T01:56:31.888Z,24.13
2019-06-15T01:57:12.452Z,24.17
2019-06-15T01:57:53.016Z,24.17
2019-06-15T01:58:33.580Z,24.17
2019-06-15T01:59:14.205Z,24.18
2019-06-15T01:59:54.725Z,24.03
2019-06-15T02:00:35.334Z,24.17
2019-06-15T02:01:15.868Z,24.14
2019-06-15T02:01:56.482Z,24.06
2019-06-15T02:02:37.057Z,24.17
2019-06-15T02:03:17.619Z,24.17
2019-06-15T02:03:58.208Z,24.1
2019-06-15T02:04:38.806Z,24.06
2019-06-15T02:05:19.334Z,24.1
2019-06-15T02:05:59.907Z,24.13
2019-06-15T02:06:40.478Z,24.17
2019-06-15T02:07:21.030Z,24.18
2019-06-15T02:08:01.609Z,24.11
2019-06-15T02:08:42.172Z,24.17
2019-06-15T02:09:22.760Z,24.1
2019-06-15T02:10:03.336Z,24.1
2019-06-15T02:10:43.932Z,24.08
2019-06-15T02:11:24.506Z,24.03
2019-06-15T02:12:05.068Z,24.13
2019-06-15T02:12:45.633Z,24.14
2019-06-15T02:13:26.207Z,24.13
2019-06-15T02:14:06.782Z,24.11
2019-06-15T02:14:47.333Z,24.14
2019-06-15T02:15:27.901Z,24.18
2019-06-15T02:16:08.495Z,24.11
2019-06-15T02:16:49.061Z,24.11
2019-06-15T02:17:29.651Z,24.18
2019-06-15T02:18:10.215Z,24.13
2019-06-15T02:18:50.807Z,24.13
2019-06-15T02:19:31.377Z,24.1
2019-06-15T02:20:11.969Z,24.16
2019-06-15T02:20:52.549Z,24.14
2019-06-15T02:21:33.117Z,24.14
2019-06-15T02:22:13.725Z,24.08
2019-06-15T02:22:54.280Z,24.06
2019-06-15T02:23:34.871Z,24.11
2019-06-15T02:24:15.412Z,24.11
2019-06-15T02:24:55.971Z,24.11
2019-06-15T02:25:36.810Z,24.11
2019-06-15T02:26:17.085Z,24.14
2019-06-15T02:26:57.693Z,24.05
2019-06-15T02:27:38.267Z,24.11
2019-06-15T02:28:18.833Z,24.13
2019-06-15T02:28:59.382Z,24.13
2019-06-15T02:29:39.939Z,24.11
2019-06-15T02:30:20.507Z,24.14
2019-06-15T02:31:01.098Z,24.02
2019-06-15T02:31:41.662Z,24.08
2019-06-15T02:32:22.236Z,23.92
2019-06-15T02:33:02.807Z,23.95
2019-06-15T02:33:43.374Z,24.01
2019-06-15T02:34:23.937Z,23.99
2019-06-15T02:35:04.508Z,23.95
2019-06-15T02:35:45.061Z,24.03
2019-06-15T02:36:25.645Z,24.03
2019-06-15T02:37:06.232Z,24.01
2019-06-15T02:37:46.825Z,24.02
2019-06-15T02:38:27.387Z,23.99
2019-06-15T02:39:07.949Z,23.98
2019-06-15T02:39:48.512Z,23.93
2019-06-15T02:40:29.085Z,23.98
2019-06-15T02:41:09.681Z,23.88
2019-06-15T02:41:50.231Z,23.98
2019-06-15T02:42:30.790Z,23.99
2019-06-15T02:43:11.371Z,23.98
2019-06-15T02:43:51.933Z,23.93
2019-06-15T02:44:32.501Z,23.92
2019-06-15T02:45:13.071Z,24.01
2019-06-15T02:45:53.627Z,23.91
2019-06-15T02:46:34.196Z,23.98
2019-06-15T02:47:14.763Z,23.93
2019-06-15T02:47:55.351Z,23.96
2019-06-15T02:48:35.904Z,23.86
2019-06-15T02:49:16.478Z,23.92
2019-06-15T02:49:57.065Z,23.88
2019-06-15T02:50:37.669Z,23.84
2019-06-15T02:51:18.473Z,23.81
2019-06-15T02:51:58.809Z,23.83
2019-06-15T02:52:39.382Z,23.87
2019-06-15T02:53:19.933Z,23.95
2019-06-15T02:54:00.500Z,23.88
2019-06-15T02:54:41.066Z,23.88
2019-06-15T02:55:21.649Z,23.87
2019-06-15T02:56:02.199Z,23.91
2019-06-15T02:56:42.767Z,23.84
2019-06-15T02:57:23.328Z,23.91
2019-06-15T02:58:03.888Z,23.87
2019-06-15T02:58:44.458Z,23.86
2019-06-15T02:59:25.748Z,23.8
2019-06-15T03:00:06.001Z,23.83
2019-06-15T03:00:46.552Z,23.81
2019-06-15T03:01:27.138Z,23.83
2019-06-15T03:02:07.703Z,23.8
2019-06-15T03:02:48.282Z,23.76
2019-06-15T03:03:28.834Z,23.76
2019-06-15T03:04:09.433Z,23.76
2019-06-15T03:04:49.971Z,23.76
2019-06-15T03:05:30.540Z,23.73
2019-06-15T03:06:11.093Z,23.77
2019-06-15T03:06:51.667Z,23.78
2019-06-15T03:07:32.279Z,23.73
2019-06-15T03:08:12.799Z,23.74
2019-06-15T03:08:53.380Z,23.73
2019-06-15T03:09:33.952Z,23.73
2019-06-15T03:10:14.517Z,23.63
2019-06-15T03:10:55.083Z,23.65
2019-06-15T03:11:35.666Z,23.54
2019-06-15T03:12:16.239Z,23.63
2019-06-15T03:12:56.795Z,23.61
2019-06-15T03:13:37.377Z,23.51
2019-06-15T03:14:17.992Z,23.54
2019-06-15T03:14:58.569Z,23.48
2019-06-15T03:15:39.141Z,23.5
2019-06-15T03:16:19.700Z,23.51
2019-06-15T03:17:00.272Z,23.39
2019-06-15T03:17:40.845Z,23.51
2019-06-15T03:18:21.434Z,23.43
2019-06-15T03:19:01.988Z,23.51
2019-06-15T03:19:42.584Z,23.47
2019-06-15T03:20:23.391Z,23.44
2019-06-15T03:21:03.954Z,23.36
2019-06-15T03:21:44.522Z,23.47
2019-06-15T03:22:25.107Z,23.32
2019-06-15T03:23:05.665Z,23.36
2019-06-15T03:23:46.240Z,23.39
2019-06-15T03:24:26.827Z,23.4
2019-06-15T03:25:07.397Z,23.25
2019-06-15T03:25:47.969Z,23.34
2019-06-15T03:26:28.528Z,23.34
2019-06-15T03:27:09.084Z,23.34
2019-06-15T03:27:49.654Z,23.36
2019-06-15T03:28:30.240Z,23.34
2019-06-15T03:29:10.823Z,23.39
2019-06-15T03:29:51.364Z,23.39
2019-06-15T03:30:31.944Z,23.36
2019-06-15T03:31:12.502Z,23.39
2019-06-15T03:31:53.088Z,23.39
2019-06-15T03:32:33.660Z,23.37
2019-06-15T03:33:14.225Z,23.39
2019-06-15T03:33:54.820Z,23.37
2019-06-15T03:34:35.433Z,23.4
2019-06-15T03:35:15.990Z,23.39
2019-06-15T03:35:56.554Z,23.36
2019-06-15T03:36:37.141Z,23.36
2019-06-15T03:37:17.784Z,23.31
2019-06-15T03:37:58.383Z,23.31
2019-06-15T03:38:38.947Z,23.28
2019-06-15T03:39:19.526Z,23.27
2019-06-15T03:40:00.106Z,23.34
2019-06-15T03:40:40.674Z,23.24
2019-06-15T03:41:21.235Z,23.24
2019-06-15T03:42:01.920Z,23.24
2019-06-15T03:42:42.476Z,23.31
2019-06-15T03:45:56.402Z,23.28
2019-06-15T03:46:36.969Z,23.23
2019-06-15T03:47:17.566Z,23.17
2019-06-15T03:47:58.147Z,23.31
2019-06-15T03:48:38.722Z,23.25
2019-06-15T03:49:19.256Z,23.23
2019-06-15T03:49:59.802Z,23.31
2019-06-15T03:50:40.373Z,23.21
2019-06-15T03:51:20.942Z,23.17
2019-06-15T03:52:01.552Z,23.2
2019-06-15T03:52:42.109Z,23.21
2019-06-15T03:53:22.677Z,23.17
2019-06-15T03:54:03.308Z,23.2
2019-06-15T03:54:43.882Z,23.2
2019-06-15T03:55:24.462Z,23.18
2019-06-15T03:56:17.578Z,23.24
2019-06-15T03:56:45.596Z,23.2
2019-06-15T03:57:26.172Z,23.24
2019-06-15T03:58:06.750Z,23.2
2019-06-15T03:58:47.344Z,23.27
2019-06-15T03:59:27.872Z,23.24
2019-06-15T04:00:08.450Z,23.2
2019-06-15T04:00:49.023Z,23.23
2019-06-15T04:01:29.685Z,23.21
2019-06-15T04:02:10.177Z,23.28
2019-06-15T04:02:50.765Z,23.28
2019-06-15T04:03:31.328Z,23.34
2019-06-15T04:04:11.876Z,23.23
2019-06-15T04:04:52.515Z,23.21
2019-06-15T04:05:32.998Z,23.25
2019-06-15T04:08:31.945Z,23.37
2019-06-15T04:09:12.402Z,23.32
2019-06-15T04:09:52.977Z,23.32
2019-06-15T04:10:33.535Z,23.36
2019-06-15T04:11:14.094Z,23.25
2019-06-15T04:11:54.633Z,23.2
2019-06-15T04:12:35.219Z,23.27
2019-06-15T04:13:15.767Z,23.34
2019-06-15T04:13:56.352Z,23.34
2019-06-15T04:14:36.926Z,23.21
2019-06-15T04:15:17.478Z,23.32
2019-06-15T04:15:58.035Z,23.21
2019-06-15T04:16:38.625Z,23.34
2019-06-15T04:17:19.197Z,23.32
2019-06-15T04:17:59.775Z,23.2
2019-06-15T04:18:40.347Z,23.23
2019-06-15T04:19:20.967Z,23.23
2019-06-15T04:20:01.549Z,23.36
2019-06-15T04:20:42.100Z,23.23
2019-06-15T04:21:22.682Z,23.32
2019-06-15T04:22:03.246Z,23.28
2019-06-15T04:22:43.817Z,23.24
2019-06-15T04:23:24.388Z,23.28
2019-06-15T04:24:04.964Z,23.28
2019-06-15T04:24:45.540Z,23.27
2019-06-15T04:25:26.127Z,23.21
2019-06-15T04:26:06.718Z,23.24
2019-06-15T04:26:47.271Z,23.18
2019-06-15T04:27:27.862Z,23.21
2019-06-15T04:28:08.405Z,23.28
2019-06-15T04:28:48.980Z,23.27
2019-06-15T04:29:29.547Z,23.21
2019-06-15T04:30:10.115Z,23.21
2019-06-15T04:30:50.674Z,23.31
2019-06-15T04:31:31.247Z,23.24
2019-06-15T04:32:11.801Z,23.27
2019-06-15T04:32:52.384Z,23.24
2019-06-15T04:33:32.964Z,23.23
2019-06-15T04:34:13.544Z,23.18
2019-06-15T04:34:54.080Z,23.28
2019-06-15T04:38:08.003Z,23.21
2019-06-15T04:38:48.558Z,23.34
2019-06-15T04:39:29.160Z,23.18
2019-06-15T04:40:09.730Z,23.18
2019-06-15T04:40:50.319Z,23.24
2019-06-15T04:41:30.872Z,23.2
2019-06-15T04:42:11.435Z,23.23
2019-06-15T04:42:51.978Z,23.28
2019-06-15T04:43:32.543Z,23.18
2019-06-15T04:44:13.095Z,23.25
2019-06-15T04:44:53.673Z,23.24
2019-06-15T04:45:34.247Z,23.24
2019-06-15T04:46:14.833Z,23.36
2019-06-15T04:46:55.403Z,23.25
2019-06-15T04:47:35.969Z,23.32
2019-06-15T04:48:16.531Z,23.34
2019-06-15T04:48:57.214Z,23.39
2019-06-15T04:49:37.783Z,23.34
2019-06-15T04:50:18.403Z,23.23
2019-06-15T04:50:59.012Z,23.37
2019-06-15T04:51:39.533Z,23.36
2019-06-15T04:52:20.091Z,23.31
2019-06-15T04:53:00.642Z,23.31
2019-06-15T04:53:41.223Z,23.36
2019-06-15T04:54:21.808Z,23.34
2019-06-15T04:55:02.397Z,23.36
2019-06-15T04:55:42.954Z,23.34
2019-06-15T04:56:23.524Z,23.36
2019-06-15T04:57:04.094Z,23.43
2019-06-15T04:57:44.690Z,23.5
2019-06-15T04:58:25.275Z,23.54
2019-06-15T04:59:05.839Z,23.39
2019-06-15T04:59:46.400Z,23.47
2019-06-15T05:00:26.979Z,23.5
2019-06-15T05:01:07.553Z,23.47
2019-06-15T05:01:48.104Z,23.5
2019-06-15T05:02:28.664Z,23.54
2019-06-15T05:03:09.230Z,23.47
2019-06-15T05:03:49.797Z,23.59
2019-06-15T05:04:30.379Z,23.61
2019-06-15T05:05:10.972Z,23.54
2019-06-15T05:05:51.519Z,23.51
2019-06-15T05:06:32.105Z,23.56
2019-06-15T05:07:12.651Z,23.59
2019-06-15T05:07:53.216Z,23.63
2019-06-15T05:08:33.815Z,23.63
2019-06-15T05:09:14.369Z,23.65
2019-06-15T05:12:13.194Z,23.71
2019-06-15T05:12:53.760Z,23.78
2019-06-15T05:13:34.330Z,23.74
2019-06-15T05:14:14.888Z,23.81
2019-06-15T05:14:55.445Z,23.81
2019-06-15T05:15:35.998Z,23.83
2019-06-15T05:16:16.562Z,23.83
2019-06-15T05:16:57.134Z,23.83
2019-06-15T05:17:37.703Z,23.87
2019-06-15T05:18:18.251Z,23.99
2019-06-15T05:18:58.827Z,23.92
2019-06-15T05:19:39.388Z,23.93
2019-06-15T05:20:19.955Z,24.01
2019-06-15T05:21:00.511Z,23.96
2019-06-15T05:21:41.143Z,24.16
2019-06-15T05:22:21.709Z,24.05
2019-06-15T05:23:02.302Z,24.11
2019-06-15T05:23:42.862Z,24.03
2019-06-15T05:24:23.449Z,24.1
2019-06-15T05:25:04.027Z,24.1
2019-06-15T05:25:44.592Z,24.13
2019-06-15T05:26:25.145Z,24.21
2019-06-15T05:27:06.663Z,24.2
2019-06-15T05:27:46.326Z,24.23
2019-06-15T05:28:26.851Z,24.17
2019-06-15T05:29:07.403Z,24.16
2019-06-15T05:29:47.975Z,24.28
2019-06-15T05:30:28.542Z,24.36
2019-06-15T05:31:09.103Z,24.32
2019-06-15T05:31:49.675Z,24.3
2019-06-15T05:32:30.250Z,24.3
2019-06-15T05:33:10.813Z,24.35
2019-06-15T05:33:51.372Z,24.39
2019-06-15T05:34:31.950Z,24.3
2019-06-15T05:35:12.522Z,24.3
2019-06-15T05:35:53.125Z,24.29
2019-06-15T05:36:33.744Z,24.3
2019-06-15T05:37:14.324Z,24.24
2019-06-15T05:37:54.900Z,24.14
2019-06-15T05:38:35.487Z,24.2
2019-06-15T05:39:16.074Z,24.1
2019-06-15T05:39:56.653Z,24.16
2019-06-15T05:41:44.163Z,24.2
2019-06-15T05:42:24.739Z,24.18
2019-06-15T05:43:05.312Z,24.23
2019-06-15T05:43:45.894Z,24.21
2019-06-15T05:44:26.477Z,24.17
2019-06-15T05:45:07.035Z,24.29
2019-06-15T05:45:47.621Z,24.17
2019-06-15T05:46:28.186Z,24.26
2019-06-15T05:47:08.767Z,24.23
2019-06-15T05:47:49.328Z,24.2
2019-06-15T05:48:29.997Z,24.2
2019-06-15T05:49:10.599Z,24.23
2019-06-15T05:49:51.191Z,24.2
2019-06-15T05:50:31.767Z,24.21
2019-06-15T05:51:12.394Z,24.28
2019-06-15T05:51:53.014Z,24.23
2019-06-15T05:52:33.589Z,24.26
2019-06-15T05:53:14.178Z,24.28
2019-06-15T05:53:54.787Z,24.23
2019-06-15T05:54:35.399Z,24.24
2019-06-15T05:55:15.982Z,24.23
2019-06-15T05:55:56.550Z,24.24
2019-06-15T05:56:37.351Z,24.29
2019-06-15T05:57:21.385Z,24.26
2019-06-15T05:57:58.518Z,24.21
2019-06-15T05:58:39.094Z,24.35
2019-06-15T05:59:19.679Z,24.35
2019-06-15T06:00:00.348Z,24.35
2019-06-15T06:00:40.986Z,24.47
2019-06-15T06:01:21.552Z,24.42
2019-06-15T06:02:02.132Z,24.61
2019-06-15T06:02:42.714Z,24.65
2019-06-15T06:03:23.520Z,24.74
2019-06-15T06:04:03.997Z,24.77
2019-06-15T06:04:44.545Z,24.88
2019-06-15T06:05:25.189Z,24.89
2019-06-15T06:06:05.735Z,25.11
2019-06-15T06:06:46.345Z,25.08
2019-06-15T06:07:26.934Z,25.13
2019-06-15T06:08:07.544Z,25.23
2019-06-15T06:08:48.190Z,25.29
2019-06-15T06:09:28.702Z,25.16
2019-06-15T06:10:10.858Z,25.23
2019-06-15T06:13:08.223Z,25.23
2019-06-15T06:13:48.846Z,25.23
2019-06-15T06:14:29.514Z,25.26
2019-06-15T06:15:10.184Z,25.22
2019-06-15T06:15:50.716Z,25.25
2019-06-15T06:16:31.382Z,25.29
2019-06-15T06:17:11.943Z,25.29
2019-06-15T06:17:52.539Z,25.46
2019-06-15T06:18:33.113Z,25.41
2019-06-15T06:19:13.763Z,25.38
2019-06-15T06:19:54.345Z,25.38
2019-06-15T06:20:35.186Z,25.41
2019-06-15T06:21:15.788Z,25.36
2019-06-15T06:21:58.291Z,25.33
2019-06-15T06:22:37.021Z,25.43
2019-06-15T06:23:17.647Z,25.38
2019-06-15T06:23:58.196Z,25.38
2019-06-15T06:24:38.841Z,25.5
2019-06-15T06:25:19.403Z,25.43
2019-06-15T06:25:59.998Z,25.51
2019-06-15T06:26:40.563Z,25.58
2019-06-15T06:27:33.262Z,25.66
2019-06-15T06:28:01.837Z,25.7
2019-06-15T06:28:54.078Z,25.7
2019-06-15T06:29:22.971Z,25.75
2019-06-15T06:30:03.643Z,25.87
2019-06-15T06:30:44.166Z,25.93
2019-06-15T06:31:24.726Z,25.98
2019-06-15T06:32:05.319Z,26.03
2019-06-15T06:32:45.875Z,26.13
2019-06-15T06:33:26.470Z,26.19
2019-06-15T06:34:07.097Z,26.09
2019-06-15T06:34:47.829Z,26.13
2019-06-15T06:35:28.534Z,26.23
2019-06-15T06:36:09.493Z,26.25
2019-06-15T06:36:50.098Z,26.25
2019-06-15T06:37:31.212Z,26.28
2019-06-15T06:38:11.701Z,26.31
2019-06-15T06:38:52.264Z,26.26
2019-06-15T06:39:32.821Z,26.4
2019-06-15T06:40:13.465Z,26.45
2019-06-15T06:40:54.319Z,26.48
2019-06-15T06:41:35.441Z,26.52
2019-06-15T06:42:17.984Z,26.56
2019-06-15T06:42:59.496Z,26.6
2019-06-15T06:43:42.091Z,26.68
2019-06-15T06:44:23.073Z,26.65
2019-06-15T06:45:04.318Z,26.74
2019-06-15T06:45:44.925Z,26.78
2019-06-15T06:46:25.628Z,26.75
2019-06-15T06:47:06.209Z,26.84
2019-06-15T06:47:47.067Z,26.83
2019-06-15T06:48:27.826Z,26.9
2019-06-15T06:49:08.642Z,26.93
2019-06-15T06:52:22.968Z,27.11
2019-06-15T06:53:04.028Z,27.15
2019-06-15T06:53:44.678Z,27.15
2019-06-15T06:54:26.275Z,27.1
2019-06-15T06:55:08.152Z,27.07
2019-06-15T06:55:49.311Z,27.08
2019-06-15T06:56:29.985Z,26.93
2019-06-15T06:57:10.968Z,26.93
2019-06-15T06:57:56.130Z,26.92
2019-06-15T06:58:34.758Z,26.9
2019-06-15T06:59:15.438Z,26.92
2019-06-15T06:59:56.443Z,26.96
2019-06-15T07:00:37.357Z,26.9
2019-06-15T07:01:18.003Z,26.93
2019-06-15T07:01:58.961Z,26.88
2019-06-15T07:02:39.693Z,26.84
2019-06-15T07:03:20.988Z,26.84
2019-06-15T07:04:01.991Z,26.84
2019-06-15T07:04:42.995Z,26.78
2019-06-15T07:05:24.039Z,26.8
2019-06-15T07:06:04.673Z,26.7
2019-06-15T07:06:45.781Z,26.7
2019-06-15T07:07:27.181Z,26.7
2019-06-15T07:08:08.356Z,26.62
2019-06-15T07:08:49.463Z,26.6
2019-06-15T07:09:30.741Z,26.52
2019-06-15T07:10:12.792Z,26.58
2019-06-15T07:10:53.764Z,26.59
2019-06-15T07:11:34.534Z,26.47
2019-06-15T07:14:49.204Z,26.55
2019-06-15T07:15:29.789Z,26.47
2019-06-15T07:16:10.372Z,26.37
2019-06-15T07:16:50.963Z,26.37
2019-06-15T07:17:31.532Z,26.4
2019-06-15T07:18:12.095Z,26.33
2019-06-15T07:18:52.672Z,26.38
2019-06-15T07:19:33.557Z,26.38
2019-06-15T07:20:14.538Z,26.38
2019-06-15T07:20:55.416Z,26.37
2019-06-15T07:21:35.986Z,26.41
2019-06-15T07:22:16.559Z,26.34
2019-06-15T07:22:57.110Z,26.37
2019-06-15T07:23:37.687Z,26.52
2019-06-15T07:24:18.269Z,26.53
2019-06-15T07:24:58.847Z,26.45
2019-06-15T07:25:39.515Z,26.45
2019-06-15T07:26:20.108Z,26.52
2019-06-15T07:27:00.649Z,26.51
2019-06-15T07:27:41.230Z,26.51
2019-06-15T07:28:21.804Z,26.48
2019-06-15T07:29:02.378Z,26.47
2019-06-15T07:29:42.956Z,26.52
2019-06-15T07:30:23.562Z,26.37
2019-06-15T07:31:04.117Z,26.37
2019-06-15T07:31:44.698Z,26.4
2019-06-15T07:32:25.289Z,26.52
2019-06-15T07:33:05.866Z,26.43
2019-06-15T07:33:46.460Z,26.44
2019-06-15T07:34:27.017Z,26.37
2019-06-15T07:35:07.602Z,26.31
2019-06-15T07:35:48.171Z,26.34
2019-06-15T07:36:28.764Z,26.36
2019-06-15T07:37:09.319Z,26.34
2019-06-15T07:37:49.897Z,26.38
2019-06-15T07:38:30.466Z,26.38
2019-06-15T07:39:11.074Z,26.4
2019-06-15T07:39:51.651Z,26.36
2019-06-15T07:40:32.235Z,26.38
2019-06-15T07:41:12.857Z,26.34
2019-06-15T07:41:53.435Z,26.37
2019-06-15T07:42:33.998Z,26.4
2019-06-15T07:43:14.579Z,26.4
2019-06-15T07:43:55.157Z,26.47
2019-06-15T07:44:35.813Z,26.58
2019-06-15T07:45:16.329Z,26.55
2019-06-15T07:45:56.901Z,26.66
2019-06-15T07:46:37.565Z,26.75
2019-06-15T07:47:18.106Z,26.77
2019-06-15T07:47:58.684Z,26.92
2019-06-15T07:48:39.234Z,26.93
2019-06-15T07:49:19.863Z,27.07
2019-06-15T07:50:00.432Z,27.11
2019-06-15T07:50:41.586Z,27.14
2019-06-15T07:51:23.992Z,27.2
2019-06-15T07:52:05.005Z,27.26
2019-06-15T07:52:45.951Z,27.33
2019-06-15T07:53:27.147Z,27.39
2019-06-15T07:54:08.504Z,27.49
2019-06-15T07:54:49.240Z,27.47
2019-06-15T07:55:30.433Z,27.52
2019-06-15T07:56:11.571Z,27.55
2019-06-15T07:56:52.739Z,27.52
2019-06-15T07:57:33.518Z,27.58
2019-06-15T07:58:23.934Z,27.74
2019-06-15T07:58:55.724Z,27.68
2019-06-15T07:59:36.939Z,27.73
2019-06-15T08:00:18.224Z,27.83
2019-06-15T08:00:58.915Z,27.86
2019-06-15T08:01:39.715Z,27.92
2019-06-15T08:02:20.272Z,27.93
2019-06-15T08:03:00.908Z,28.05
2019-06-15T08:03:43.382Z,28.01
2019-06-15T08:04:22.546Z,28.02
2019-06-15T08:05:03.733Z,28.02
2019-06-15T08:05:44.860Z,28.01
2019-06-15T08:06:25.867Z,28
2019-06-15T08:07:07.086Z,28.14
2019-06-15T08:07:49.180Z,28.15
2019-06-15T08:11:03.437Z,28.25
2019-06-15T08:11:45.873Z,28.27
2019-06-15T08:12:25.284Z,28.25
2019-06-15T08:13:06.313Z,28.26
2019-06-15T08:13:46.949Z,28.32
2019-06-15T08:14:27.537Z,28.25
2019-06-15T08:15:08.930Z,28.25
2019-06-15T08:15:49.976Z,28.08
2019-06-15T08:16:30.537Z,28.15
2019-06-15T08:17:11.117Z,28.02
2019-06-15T08:17:51.911Z,28.04
2019-06-15T08:18:32.657Z,27.95
2019-06-15T08:21:31.708Z,27.74
2019-06-15T08:22:12.277Z,27.73
2019-06-15T08:22:52.964Z,27.74
2019-06-15T08:23:33.587Z,27.82
2019-06-15T08:24:14.354Z,27.86
2019-06-15T08:24:54.938Z,27.95
2019-06-15T08:25:35.560Z,28
2019-06-15T08:26:16.096Z,28
2019-06-15T08:26:56.689Z,28
2019-06-15T08:27:37.280Z,28.08
2019-06-15T08:28:17.913Z,28.1
2019-06-15T08:28:58.466Z,28.12
2019-06-15T08:29:39.104Z,28.17
2019-06-15T08:30:19.654Z,28.12
2019-06-15T08:31:00.221Z,28.1
2019-06-15T08:31:40.822Z,28.2
2019-06-15T08:32:21.361Z,28.27
2019-06-15T08:33:02.049Z,28.26
2019-06-15T08:33:42.657Z,28.25
2019-06-15T08:34:23.215Z,28.25
2019-06-15T08:35:03.775Z,28.25
2019-06-15T08:35:44.337Z,28.27
2019-06-15T08:36:25.108Z,28.15
2019-06-15T08:37:05.747Z,28.2
2019-06-15T08:37:46.328Z,28.12
2019-06-15T08:38:26.868Z,28.25
2019-06-15T08:39:07.445Z,28.25
2019-06-15T08:39:48.064Z,28.22
2019-06-15T08:40:28.676Z,28.22
2019-06-15T08:41:09.234Z,28.29
2019-06-15T08:41:49.795Z,28.26
2019-06-15T08:42:30.361Z,28.23
2019-06-15T08:43:10.930Z,28.32
2019-06-15T08:43:51.507Z,28.29
2019-06-15T08:44:32.050Z,28.45
2019-06-15T08:45:12.609Z,28.47
2019-06-15T08:45:53.196Z,28.47
2019-06-15T08:46:33.868Z,28.48
2019-06-15T08:47:14.458Z,28.41
2019-06-15T08:47:55.051Z,28.51
2019-06-15T08:48:35.592Z,28.49
2019-06-15T08:49:16.161Z,28.66
2019-06-15T08:49:56.768Z,28.56
2019-06-15T08:50:37.341Z,28.59
2019-06-15T08:51:17.915Z,28.56
2019-06-15T08:51:58.524Z,28.54
2019-06-15T08:52:39.091Z,28.6
2019-06-15T08:53:19.668Z,28.52
2019-06-15T08:54:00.234Z,28.59
2019-06-15T08:54:40.799Z,28.67
2019-06-15T08:55:21.370Z,28.63
2019-06-15T08:56:01.968Z,28.63
2019-06-15T08:56:42.534Z,28.66
2019-06-15T08:57:23.779Z,28.57
2019-06-15T08:58:05.866Z,28.56
2019-06-15T08:58:55.280Z,28.49
2019-06-15T08:59:30.511Z,28.52
2019-06-15T09:00:11.986Z,28.6
2019-06-15T09:00:52.559Z,28.56
2019-06-15T09:01:33.785Z,28.63
2019-06-15T09:02:14.366Z,28.59
2019-06-15T09:02:54.927Z,28.69
2019-06-15T09:03:35.656Z,28.69
2019-06-15T09:04:16.231Z,28.7
2019-06-15T09:04:56.793Z,28.7
2019-06-15T09:05:37.407Z,28.69
2019-06-15T09:06:17.981Z,28.67
2019-06-15T09:06:58.570Z,28.66
2019-06-15T09:07:39.150Z,28.66
2019-06-15T09:08:19.727Z,28.67
2019-06-15T09:09:00.288Z,28.74